Terminal Aerodrome Forecast
Issued by NWS

Home | Current Version | Previous Version | Text Only | Print | Product List | Glossary On
Versions: 1 2 3 4 5 6 7 8 9 10 11 12 13 14 15 16 17 18 19
000
FTUS41 KPBZ 261100
TAFDUJ
TAF
KDUJ 261120Z 2612/2712 26009KT P6SM OVC019
     FM261400 21008KT P6SM SCT025
     FM261600 20008KT P6SM SKC=

USA.gov is the U.S. government's official web portal to all federal, state and local government web resources and services.